MUC | München Airways

 METAR UND TAF INFORMATION

METAR FOR EGTE
ADDS - METARS form results

(1609 UTC 24 March 2019)
Data provider http://aviationweather.gov/metar/data/
 
METAR text: EGTE 241550Z 31013KT CAVOK 11/02 Q1031
Conditions at: EGTE (EXETER AIRPORT , GB) observed 1550 UTC 24 March 2019
Temperature: 11.0°C (52°F)
Dewpoint: 2.0°C (36°F) [RH = 54%]
Pressure (altimeter): 30.44 inches Hg (1031.0 mb)
Winds: from the NW (310 degrees) at 15 MPH (13 knots; 6.7 m/s)
Visibility: 6 or more miles (10+ km)
Ceiling: ceiling and visibility are OK
Clouds: unknown
Weather: no significant weather observed at this time

METAR text: EGTE 241520Z 33013KT 9999 FEW040 12/03 Q1031
Conditions at: EGTE (EXETER AIRPORT , GB) observed 1520 UTC 24 March 2019
Temperature: 12.0°C (54°F)
Dewpoint: 3.0°C (37°F) [RH = 54%]
Pressure (altimeter): 30.44 inches Hg (1031.0 mb)
Winds: from the NNW (330 degrees) at 15 MPH (13 knots; 6.7 m/s)
Visibility: 6 or more miles (10+ km)
Ceiling: at least 12,000 feet AGL
Clouds: few clouds at 4000 feet AGL
Weather: no significant weather observed at this time

Forecast for: EGTE (EXETER AIRPORT , GB)
Text: TAF EGTE 241358Z 2415/2424 32009KT 9999 FEW040
Forecast period: 1500 UTC 24 March 2019 to 0000 UTC 25 March 2019
Forecast type: FROM: standard forecast or significant change
Winds: from the NW (320 degrees) at 10 MPH (9 knots; 4.6 m/s)
Visibility: 6 or more miles 10+ km)
Ceiling: at least 12,000 feet AGL
Clouds: few clouds at 4000 feet AGL
Weather: no significant weather forecast for this period

 FLUGHAFENKARTE

 RUNWAY INFORMATION
Runway 08 Runway length 6834 ft Runway width 151 ft
Runway elevation 99 ft Runway displaced threshold 33 ft Runway heading 76
Runway 26 Runway length 6834 ft Runway width 151 ft
Runway elevation 102 ft Runway displaced threshold 117 ft Runway heading 256
Runway 13 Runway length 4393 ft Runway width 151 ft
Runway elevation 76 ft Runway displaced threshold 446 ft Runway heading 120
Runway 31 Runway length 4393 ft Runway width 151 ft
Runway elevation 98 ft Runway displaced threshold 0 ft Runway heading 300

 AIRPORT FREQUENCIES
Type APP Name APP Frequency 128.975 MHZ
Type ATIS Name ATIS Frequency 119.325 MHZ
Type TWR Name TWR Frequency 119.8 MHZ
Type Radar Name EXETER Rad Frequency 123.57 MHZ

 AIRPORT NEAR NAVIGATION AIDS